Terminal Aerodrome Forecast
Issued by NWS Sioux Falls, SD

Home | Current Version | Previous Version | Graphics & Text | Print | Product List | Glossary Off
Versions: 1 2 3 4 5 6 7 8 9 10 11 12 13 14 15 16 17 18 19 20

000
FTUS43 KFSD 101700
TAFFSD
TAF
KFSD 101733Z 1018/1118 17015G23KT P6SM SCT080 BKN200
     FM110100 16012KT P6SM SCT050 BKN150
     FM111000 17009KT P6SM SCT015 OVC080=

USA.gov is the U.S. government's official web portal to all federal, state and local government web resources and services.